<?xml version="1.0" encoding="utf-8"?>
<gpx xmlns:xsi="http://www.w3.org/2001/XMLSchema-instance" xmlns:xsd="http://www.w3.org/2001/XMLSchema" version="1.1" creator="Shapelink.com" xmlns="http://www.topografix.com/GPX/1/1" xmlns:gpxtpx="http://www.garmin.com/xmlschemas/TrackPointExtension/v1">
  <metadata>
    <name>Kajakkpadling 9.03 km, 2013-07-15</name>
    <desc></desc>
    <author><name>Alexander Engvall</name></author> 
    <time>2013-07-15T15:03:21Z</time>
  </metadata>
  <trk>
    <name>Kajakkpadling 9.03 km, 2013-07-15</name>
    <trkseg>
      <trkpt lat="59.608139341968" lon="14.931973808826">
        <ele>108.8</ele>
        <time>2013-07-15T15:03:21Z</time>
      </trkpt>
      <trkpt lat="59.608143532918" lon="14.931978586509">
        <ele>108.8</ele>
        <time>2013-07-15T15:03:22Z</time>
      </trkpt>
      <trkpt lat="59.608166164048" lon="14.932010773005">
        <ele>108.8</ele>
        <time>2013-07-15T15:03:26Z</time>
      </trkpt>
      <trkpt lat="59.608162056917" lon="14.93200783934">
        <ele>108.8</ele>
        <time>2013-07-15T15:03:34Z</time>
      </trkpt>
      <trkpt lat="59.608147975325" lon="14.932074978359">
        <ele>108.8</ele>
        <time>2013-07-15T15:03:40Z</time>
      </trkpt>
      <trkpt lat="59.608141185986" lon="14.932102219534">
        <ele>108.8</ele>
        <time>2013-07-15T15:03:41Z</time>
      </trkpt>
      <trkpt lat="59.608097181011" lon="14.932407488332">
        <ele>108.8</ele>
        <time>2013-07-15T15:03:50Z</time>
      </trkpt>
      <trkpt lat="59.608048985086" lon="14.93265995116">
        <ele>108.8</ele>
        <time>2013-07-15T15:03:57Z</time>
      </trkpt>
      <trkpt lat="59.607972625977" lon="14.932867906099">
        <ele>108.8</ele>
        <time>2013-07-15T15:04:05Z</time>
      </trkpt>
      <trkpt lat="59.607886292407" lon="14.933098073073">
        <ele>108.8</ele>
        <time>2013-07-15T15:04:13Z</time>
      </trkpt>
      <trkpt lat="59.60777875263" lon="14.933379788732">
        <ele>108.8</ele>
        <time>2013-07-15T15:04:22Z</time>
      </trkpt>
      <trkpt lat="59.607653359406" lon="14.933679441657">
        <ele>108.8</ele>
        <time>2013-07-15T15:04:32Z</time>
      </trkpt>
      <trkpt lat="59.607524194327" lon="14.933923271128">
        <ele>108.8</ele>
        <time>2013-07-15T15:04:40Z</time>
      </trkpt>
      <trkpt lat="59.607368374806" lon="14.934163077287">
        <ele>108.8</ele>
        <time>2013-07-15T15:04:49Z</time>
      </trkpt>
      <trkpt lat="59.60724147284" lon="14.934355860987">
        <ele>108.8</ele>
        <time>2013-07-15T15:04:57Z</time>
      </trkpt>
      <trkpt lat="59.607091269192" lon="14.934604300503">
        <ele>108.8</ele>
        <time>2013-07-15T15:05:07Z</time>
      </trkpt>
      <trkpt lat="59.60698750127" lon="14.934749642649">
        <ele>108.8</ele>
        <time>2013-07-15T15:05:14Z</time>
      </trkpt>
      <trkpt lat="59.606843667866" lon="14.934744697328">
        <ele>108.8</ele>
        <time>2013-07-15T15:05:21Z</time>
      </trkpt>
      <trkpt lat="59.606678712074" lon="14.934770345942">
        <ele>108.8</ele>
        <time>2013-07-15T15:05:30Z</time>
      </trkpt>
      <trkpt lat="59.606493723541" lon="14.934833796925">
        <ele>108.8</ele>
        <time>2013-07-15T15:05:40Z</time>
      </trkpt>
      <trkpt lat="59.606305130791" lon="14.934946952575">
        <ele>108.8</ele>
        <time>2013-07-15T15:05:50Z</time>
      </trkpt>
      <trkpt lat="59.606143695397" lon="14.935027670272">
        <ele>108.8</ele>
        <time>2013-07-15T15:05:59Z</time>
      </trkpt>
      <trkpt lat="59.606014865594" lon="14.935173850608">
        <ele>108.8</ele>
        <time>2013-07-15T15:06:07Z</time>
      </trkpt>
      <trkpt lat="59.605834570925" lon="14.935363281548">
        <ele>108.8</ele>
        <time>2013-07-15T15:06:18Z</time>
      </trkpt>
      <trkpt lat="59.605714206841" lon="14.93554332476">
        <ele>108.8</ele>
        <time>2013-07-15T15:06:26Z</time>
      </trkpt>
      <trkpt lat="59.60558018026" lon="14.935775251933">
        <ele>108.8</ele>
        <time>2013-07-15T15:06:36Z</time>
      </trkpt>
      <trkpt lat="59.605485213333" lon="14.935909781428">
        <ele>108.8</ele>
        <time>2013-07-15T15:06:43Z</time>
      </trkpt>
      <trkpt lat="59.605336099332" lon="14.936090998106">
        <ele>108.8</ele>
        <time>2013-07-15T15:06:54Z</time>
      </trkpt>
      <trkpt lat="59.605245658631" lon="14.936248913102">
        <ele>108.8</ele>
        <time>2013-07-15T15:07:03Z</time>
      </trkpt>
      <trkpt lat="59.605156307577" lon="14.9364284534">
        <ele>108.8</ele>
        <time>2013-07-15T15:07:12Z</time>
      </trkpt>
      <trkpt lat="59.605026555765" lon="14.936675635631">
        <ele>108.8</ele>
        <time>2013-07-15T15:07:22Z</time>
      </trkpt>
      <trkpt lat="59.605014653467" lon="14.936701535702">
        <ele>108.8</ele>
        <time>2013-07-15T15:07:23Z</time>
      </trkpt>
      <trkpt lat="59.604926811155" lon="14.936917201989">
        <ele>108.8</ele>
        <time>2013-07-15T15:07:30Z</time>
      </trkpt>
      <trkpt lat="59.604811224754" lon="14.937154996492">
        <ele>108.8</ele>
        <time>2013-07-15T15:07:38Z</time>
      </trkpt>
      <trkpt lat="59.604612657543" lon="14.937442914757">
        <ele>108.8</ele>
        <time>2013-07-15T15:07:50Z</time>
      </trkpt>
      <trkpt lat="59.604453149986" lon="14.937591274387">
        <ele>108.8</ele>
        <time>2013-07-15T15:07:59Z</time>
      </trkpt>
      <trkpt lat="59.604321302699" lon="14.937799061688">
        <ele>108.8</ele>
        <time>2013-07-15T15:08:08Z</time>
      </trkpt>
      <trkpt lat="59.604213595284" lon="14.93798245766">
        <ele>108.8</ele>
        <time>2013-07-15T15:08:17Z</time>
      </trkpt>
      <trkpt lat="59.604070683889" lon="14.938228634063">
        <ele>108.8</ele>
        <time>2013-07-15T15:08:26Z</time>
      </trkpt>
      <trkpt lat="59.603910421961" lon="14.938499285614">
        <ele>108.8</ele>
        <time>2013-07-15T15:08:37Z</time>
      </trkpt>
      <trkpt lat="59.603774802819" lon="14.938791059553">
        <ele>108.8</ele>
        <time>2013-07-15T15:08:47Z</time>
      </trkpt>
      <trkpt lat="59.603649577233" lon="14.939076882343">
        <ele>108.8</ele>
        <time>2013-07-15T15:08:56Z</time>
      </trkpt>
      <trkpt lat="59.60354254037" lon="14.939385922996">
        <ele>108.8</ele>
        <time>2013-07-15T15:09:05Z</time>
      </trkpt>
      <trkpt lat="59.603408513789" lon="14.939808203118">
        <ele>108.8</ele>
        <time>2013-07-15T15:09:17Z</time>
      </trkpt>
      <trkpt lat="59.603290664275" lon="14.940134259028">
        <ele>108.8</ele>
        <time>2013-07-15T15:09:27Z</time>
      </trkpt>
      <trkpt lat="59.603149261622" lon="14.940408933891">
        <ele>108.8</ele>
        <time>2013-07-15T15:09:37Z</time>
      </trkpt>
      <trkpt lat="59.603075836178" lon="14.940666090583">
        <ele>108.8</ele>
        <time>2013-07-15T15:09:45Z</time>
      </trkpt>
      <trkpt lat="59.603017162878" lon="14.940934981935">
        <ele>108.8</ele>
        <time>2013-07-15T15:09:53Z</time>
      </trkpt>
      <trkpt lat="59.603001404906" lon="14.941073534742">
        <ele>108.8</ele>
        <time>2013-07-15T15:09:57Z</time>
      </trkpt>
      <trkpt lat="59.602984892563" lon="14.941236143602">
        <ele>108.8</ele>
        <time>2013-07-15T15:10:02Z</time>
      </trkpt>
      <trkpt lat="59.602895792966" lon="14.941490953362">
        <ele>108.8</ele>
        <time>2013-07-15T15:10:10Z</time>
      </trkpt>
      <trkpt lat="59.602770986475" lon="14.941755402307">
        <ele>108.8</ele>
        <time>2013-07-15T15:10:19Z</time>
      </trkpt>
      <trkpt lat="59.602671074227" lon="14.941967883472">
        <ele>108.8</ele>
        <time>2013-07-15T15:10:28Z</time>
      </trkpt>
      <trkpt lat="59.602538975483" lon="14.942182963026">
        <ele>108.8</ele>
        <time>2013-07-15T15:10:38Z</time>
      </trkpt>
      <trkpt lat="59.602422634711" lon="14.942423775013">
        <ele>108.8</ele>
        <time>2013-07-15T15:10:47Z</time>
      </trkpt>
      <trkpt lat="59.602309981975" lon="14.942602225664">
        <ele>108.8</ele>
        <time>2013-07-15T15:10:55Z</time>
      </trkpt>
      <trkpt lat="59.602195988135" lon="14.942803223626">
        <ele>108.8</ele>
        <time>2013-07-15T15:11:03Z</time>
      </trkpt>
      <trkpt lat="59.60208744253" lon="14.943055937911">
        <ele>108.8</ele>
        <time>2013-07-15T15:11:12Z</time>
      </trkpt>
      <trkpt lat="59.601984009884" lon="14.943211338337">
        <ele>108.8</ele>
        <time>2013-07-15T15:11:20Z</time>
      </trkpt>
      <trkpt lat="59.601880074324" lon="14.943255427131">
        <ele>108.8</ele>
        <time>2013-07-15T15:11:29Z</time>
      </trkpt>
      <trkpt lat="59.601780748809" lon="14.943376042672">
        <ele>108.8</ele>
        <time>2013-07-15T15:11:37Z</time>
      </trkpt>
      <trkpt lat="59.601678489629" lon="14.943620542695">
        <ele>108.8</ele>
        <time>2013-07-15T15:11:46Z</time>
      </trkpt>
      <trkpt lat="59.601615457741" lon="14.943857499008">
        <ele>108.8</ele>
        <time>2013-07-15T15:11:55Z</time>
      </trkpt>
      <trkpt lat="59.601545887971" lon="14.944062101187">
        <ele>108.8</ele>
        <time>2013-07-15T15:12:02Z</time>
      </trkpt>
      <trkpt lat="59.60145460908" lon="14.94424122239">
        <ele>108.8</ele>
        <time>2013-07-15T15:12:09Z</time>
      </trkpt>
      <trkpt lat="59.601316475368" lon="14.94452285423">
        <ele>108.8</ele>
        <time>2013-07-15T15:12:19Z</time>
      </trkpt>
      <trkpt lat="59.601189070488" lon="14.944785291519">
        <ele>108.8</ele>
        <time>2013-07-15T15:12:28Z</time>
      </trkpt>
      <trkpt lat="59.601089325878" lon="14.945022331651">
        <ele>108.8</ele>
        <time>2013-07-15T15:12:36Z</time>
      </trkpt>
      <trkpt lat="59.600959825523" lon="14.945305388414">
        <ele>108.8</ele>
        <time>2013-07-15T15:12:46Z</time>
      </trkpt>
      <trkpt lat="59.600877012351" lon="14.94551694757">
        <ele>108.8</ele>
        <time>2013-07-15T15:12:53Z</time>
      </trkpt>
      <trkpt lat="59.600711721283" lon="14.945826155861">
        <ele>108.8</ele>
        <time>2013-07-15T15:13:04Z</time>
      </trkpt>
      <trkpt lat="59.600568306974" lon="14.946015251525">
        <ele>108.8</ele>
        <time>2013-07-15T15:13:13Z</time>
      </trkpt>
      <trkpt lat="59.600405949571" lon="14.946260925014">
        <ele>108.8</ele>
        <time>2013-07-15T15:13:24Z</time>
      </trkpt>
      <trkpt lat="59.600264714556" lon="14.946500647354">
        <ele>108.8</ele>
        <time>2013-07-15T15:13:34Z</time>
      </trkpt>
      <trkpt lat="59.600165808136" lon="14.946627716958">
        <ele>108.8</ele>
        <time>2013-07-15T15:13:40Z</time>
      </trkpt>
      <trkpt lat="59.600068661915" lon="14.946732155432">
        <ele>108.8</ele>
        <time>2013-07-15T15:13:46Z</time>
      </trkpt>
      <trkpt lat="59.599914518774" lon="14.946892501179">
        <ele>108.8</ele>
        <time>2013-07-15T15:13:54Z</time>
      </trkpt>
      <trkpt lat="59.59974973062" lon="14.947139096677">
        <ele>108.8</ele>
        <time>2013-07-15T15:14:03Z</time>
      </trkpt>
      <trkpt lat="59.599570609417" lon="14.947363563959">
        <ele>108.8</ele>
        <time>2013-07-15T15:14:12Z</time>
      </trkpt>
      <trkpt lat="59.599429290583" lon="14.947530782864">
        <ele>108.8</ele>
        <time>2013-07-15T15:14:20Z</time>
      </trkpt>
      <trkpt lat="59.599241452204" lon="14.947693475543">
        <ele>108.8</ele>
        <time>2013-07-15T15:14:31Z</time>
      </trkpt>
      <trkpt lat="59.599063672105" lon="14.947896820437">
        <ele>108.8</ele>
        <time>2013-07-15T15:14:43Z</time>
      </trkpt>
      <trkpt lat="59.598884299445" lon="14.948156659337">
        <ele>108.8</ele>
        <time>2013-07-15T15:14:54Z</time>
      </trkpt>
      <trkpt lat="59.598715990893" lon="14.948420353911">
        <ele>108.8</ele>
        <time>2013-07-15T15:15:05Z</time>
      </trkpt>
      <trkpt lat="59.598558997906" lon="14.948698130077">
        <ele>108.8</ele>
        <time>2013-07-15T15:15:16Z</time>
      </trkpt>
      <trkpt lat="59.59841197938" lon="14.948958136615">
        <ele>108.8</ele>
        <time>2013-07-15T15:15:26Z</time>
      </trkpt>
      <trkpt lat="59.598386498404" lon="14.949007003092">
        <ele>108.8</ele>
        <time>2013-07-15T15:15:28Z</time>
      </trkpt>
      <trkpt lat="59.598275186772" lon="14.949215293307">
        <ele>108.8</ele>
        <time>2013-07-15T15:15:36Z</time>
      </trkpt>
      <trkpt lat="59.598104447469" lon="14.949500445545">
        <ele>108.8</ele>
        <time>2013-07-15T15:15:48Z</time>
      </trkpt>
      <trkpt lat="59.597956171658" lon="14.949743855921">
        <ele>108.8</ele>
        <time>2013-07-15T15:15:58Z</time>
      </trkpt>
      <trkpt lat="59.597791383504" lon="14.950005287382">
        <ele>108.8</ele>
        <time>2013-07-15T15:16:10Z</time>
      </trkpt>
      <trkpt lat="59.597650651403" lon="14.950258756038">
        <ele>108.8</ele>
        <time>2013-07-15T15:16:20Z</time>
      </trkpt>
      <trkpt lat="59.597471949295" lon="14.950505100079">
        <ele>108.8</ele>
        <time>2013-07-15T15:16:30Z</time>
      </trkpt>
      <trkpt lat="59.597295007386" lon="14.950778685295">
        <ele>108.8</ele>
        <time>2013-07-15T15:16:42Z</time>
      </trkpt>
      <trkpt lat="59.597160645529" lon="14.951046906095">
        <ele>108.8</ele>
        <time>2013-07-15T15:16:52Z</time>
      </trkpt>
      <trkpt lat="59.597013207908" lon="14.951392994746">
        <ele>108.8</ele>
        <time>2013-07-15T15:17:04Z</time>
      </trkpt>
      <trkpt lat="59.596909523805" lon="14.951497349401">
        <ele>108.8</ele>
        <time>2013-07-15T15:17:11Z</time>
      </trkpt>
      <trkpt lat="59.596788237712" lon="14.951636321303">
        <ele>108.8</ele>
        <time>2013-07-15T15:17:21Z</time>
      </trkpt>
      <trkpt lat="59.596696288269" lon="14.951729276574">
        <ele>108.8</ele>
        <time>2013-07-15T15:17:33Z</time>
      </trkpt>
      <trkpt lat="59.596621437902" lon="14.95180756352">
        <ele>108.8</ele>
        <time>2013-07-15T15:17:42Z</time>
      </trkpt>
      <trkpt lat="59.596536613074" lon="14.951979727746">
        <ele>108.8</ele>
        <time>2013-07-15T15:17:50Z</time>
      </trkpt>
      <trkpt lat="59.596458074671" lon="14.952216516421">
        <ele>108.8</ele>
        <time>2013-07-15T15:17:59Z</time>
      </trkpt>
      <trkpt lat="59.596387247616" lon="14.95249907027">
        <ele>108.8</ele>
        <time>2013-07-15T15:18:09Z</time>
      </trkpt>
      <trkpt lat="59.596361263726" lon="14.952553049706">
        <ele>108.8</ele>
        <time>2013-07-15T15:18:12Z</time>
      </trkpt>
      <trkpt lat="59.596321784977" lon="14.952563946176">
        <ele>108.8</ele>
        <time>2013-07-15T15:18:15Z</time>
      </trkpt>
      <trkpt lat="59.596218519969" lon="14.952542739969">
        <ele>108.8</ele>
        <time>2013-07-15T15:18:21Z</time>
      </trkpt>
      <trkpt lat="59.596079967162" lon="14.952501501021">
        <ele>108.8</ele>
        <time>2013-07-15T15:18:29Z</time>
      </trkpt>
      <trkpt lat="59.5959544063" lon="14.952528574558">
        <ele>108.8</ele>
        <time>2013-07-15T15:18:36Z</time>
      </trkpt>
      <trkpt lat="59.595825911773" lon="14.952508625636">
        <ele>108.8</ele>
        <time>2013-07-15T15:18:43Z</time>
      </trkpt>
      <trkpt lat="59.595672690641" lon="14.952494711682">
        <ele>108.8</ele>
        <time>2013-07-15T15:18:52Z</time>
      </trkpt>
      <trkpt lat="59.595531790902" lon="14.952511894577">
        <ele>108.8</ele>
        <time>2013-07-15T15:19:00Z</time>
      </trkpt>
      <trkpt lat="59.595407487325" lon="14.95259546212">
        <ele>108.8</ele>
        <time>2013-07-15T15:19:08Z</time>
      </trkpt>
      <trkpt lat="59.595259211514" lon="14.952740133714">
        <ele>108.8</ele>
        <time>2013-07-15T15:19:17Z</time>
      </trkpt>
      <trkpt lat="59.595130884625" lon="14.952865862214">
        <ele>108.8</ele>
        <time>2013-07-15T15:19:25Z</time>
      </trkpt>
      <trkpt lat="59.595016806966" lon="14.952998380053">
        <ele>108.8</ele>
        <time>2013-07-15T15:19:33Z</time>
      </trkpt>
      <trkpt lat="59.59486978844" lon="14.953128634779">
        <ele>108.8</ele>
        <time>2013-07-15T15:19:42Z</time>
      </trkpt>
      <trkpt lat="59.594724865389" lon="14.95323583928">
        <ele>108.8</ele>
        <time>2013-07-15T15:19:50Z</time>
      </trkpt>
      <trkpt lat="59.594566866574" lon="14.953332147311">
        <ele>108.8</ele>
        <time>2013-07-15T15:19:59Z</time>
      </trkpt>
      <trkpt lat="59.594429571052" lon="14.953429796446">
        <ele>108.8</ele>
        <time>2013-07-15T15:20:07Z</time>
      </trkpt>
      <trkpt lat="59.59426712983" lon="14.953546891589">
        <ele>108.8</ele>
        <time>2013-07-15T15:20:15Z</time>
      </trkpt>
      <trkpt lat="59.594093540681" lon="14.953668177682">
        <ele>108.8</ele>
        <time>2013-07-15T15:20:24Z</time>
      </trkpt>
      <trkpt lat="59.593927495242" lon="14.953820309167">
        <ele>108.8</ele>
        <time>2013-07-15T15:20:32Z</time>
      </trkpt>
      <trkpt lat="59.593779638526" lon="14.953930279695">
        <ele>108.8</ele>
        <time>2013-07-15T15:20:40Z</time>
      </trkpt>
      <trkpt lat="59.593611832888" lon="14.954003034587">
        <ele>108.8</ele>
        <time>2013-07-15T15:20:49Z</time>
      </trkpt>
      <trkpt lat="59.593439333386" lon="14.954146281258">
        <ele>108.8</ele>
        <time>2013-07-15T15:20:58Z</time>
      </trkpt>
      <trkpt lat="59.593254009577" lon="14.954330431601">
        <ele>108.8</ele>
        <time>2013-07-15T15:21:08Z</time>
      </trkpt>
      <trkpt lat="59.593056112918" lon="14.954475941385">
        <ele>108.8</ele>
        <time>2013-07-15T15:21:19Z</time>
      </trkpt>
      <trkpt lat="59.592929713866" lon="14.954671574931">
        <ele>108.8</ele>
        <time>2013-07-15T15:21:28Z</time>
      </trkpt>
      <trkpt lat="59.592787137747" lon="14.954901574267">
        <ele>108.8</ele>
        <time>2013-07-15T15:21:38Z</time>
      </trkpt>
      <trkpt lat="59.592685716757" lon="14.955123024065">
        <ele>108.8</ele>
        <time>2013-07-15T15:21:47Z</time>
      </trkpt>
      <trkpt lat="59.592571052365" lon="14.955385377535">
        <ele>108.8</ele>
        <time>2013-07-15T15:21:56Z</time>
      </trkpt>
      <trkpt lat="59.592472984135" lon="14.955670697411">
        <ele>108.8</ele>
        <time>2013-07-15T15:22:06Z</time>
      </trkpt>
      <trkpt lat="59.592417831233" lon="14.95588619606">
        <ele>108.8</ele>
        <time>2013-07-15T15:22:15Z</time>
      </trkpt>
      <trkpt lat="59.592337700269" lon="14.956162631122">
        <ele>108.8</ele>
        <time>2013-07-15T15:22:24Z</time>
      </trkpt>
      <trkpt lat="59.592265196834" lon="14.956392798096">
        <ele>108.8</ele>
        <time>2013-07-15T15:22:32Z</time>
      </trkpt>
      <trkpt lat="59.592192274304" lon="14.956688595347">
        <ele>108.8</ele>
        <time>2013-07-15T15:22:41Z</time>
      </trkpt>
      <trkpt lat="59.592111724245" lon="14.956963186391">
        <ele>108.8</ele>
        <time>2013-07-15T15:22:50Z</time>
      </trkpt>
      <trkpt lat="59.592032347652" lon="14.957216319771">
        <ele>108.8</ele>
        <time>2013-07-15T15:22:58Z</time>
      </trkpt>
      <trkpt lat="59.591925478427" lon="14.957532736496">
        <ele>108.8</ele>
        <time>2013-07-15T15:23:07Z</time>
      </trkpt>
      <trkpt lat="59.591856663028" lon="14.957862396623">
        <ele>108.8</ele>
        <time>2013-07-15T15:23:17Z</time>
      </trkpt>
      <trkpt lat="59.591783321403" lon="14.958126929387">
        <ele>108.8</ele>
        <time>2013-07-15T15:23:26Z</time>
      </trkpt>
      <trkpt lat="59.591704531543" lon="14.95840830977">
        <ele>108.8</ele>
        <time>2013-07-15T15:23:35Z</time>
      </trkpt>
      <trkpt lat="59.591606044218" lon="14.958669992688">
        <ele>108.8</ele>
        <time>2013-07-15T15:23:44Z</time>
      </trkpt>
      <trkpt lat="59.591506802522" lon="14.958903512422">
        <ele>108.8</ele>
        <time>2013-07-15T15:23:52Z</time>
      </trkpt>
      <trkpt lat="59.591411835595" lon="14.959138708536">
        <ele>108.8</ele>
        <time>2013-07-15T15:24:00Z</time>
      </trkpt>
      <trkpt lat="59.591311252795" lon="14.959406510241">
        <ele>108.8</ele>
        <time>2013-07-15T15:24:09Z</time>
      </trkpt>
      <trkpt lat="59.591180159879" lon="14.959636928672">
        <ele>108.8</ele>
        <time>2013-07-15T15:24:19Z</time>
      </trkpt>
      <trkpt lat="59.591091730834" lon="14.959836501711">
        <ele>108.8</ele>
        <time>2013-07-15T15:24:29Z</time>
      </trkpt>
      <trkpt lat="59.591041020339" lon="14.95994219747">
        <ele>108.8</ele>
        <time>2013-07-15T15:24:35Z</time>
      </trkpt>
      <trkpt lat="59.591040349787" lon="14.960144704174">
        <ele>111</ele>
        <time>2013-07-15T15:27:41Z</time>
      </trkpt>
      <trkpt lat="59.591043954004" lon="14.960162976716">
        <ele>111</ele>
        <time>2013-07-15T15:27:42Z</time>
      </trkpt>
      <trkpt lat="59.591094329223" lon="14.960379145917">
        <ele>111</ele>
        <time>2013-07-15T15:27:52Z</time>
      </trkpt>
      <trkpt lat="59.59112140276" lon="14.960568073943">
        <ele>111</ele>
        <time>2013-07-15T15:28:05Z</time>
      </trkpt>
      <trkpt lat="59.591121486579" lon="14.960699418316">
        <ele>111</ele>
        <time>2013-07-15T15:28:16Z</time>
      </trkpt>
      <trkpt lat="59.591121151303" lon="14.960749709716">
        <ele>111</ele>
        <time>2013-07-15T15:28:28Z</time>
      </trkpt>
      <trkpt lat="59.591135316714" lon="14.960814334165">
        <ele>111</ele>
        <time>2013-07-15T15:28:36Z</time>
      </trkpt>
      <trkpt lat="59.591134897619" lon="14.960891447645">
        <ele>111</ele>
        <time>2013-07-15T15:28:39Z</time>
      </trkpt>
      <trkpt lat="59.591146799917" lon="14.961033017936">
        <ele>111</ele>
        <time>2013-07-15T15:28:45Z</time>
      </trkpt>
      <trkpt lat="59.591156522921" lon="14.961330156291">
        <ele>111</ele>
        <time>2013-07-15T15:28:55Z</time>
      </trkpt>
      <trkpt lat="59.591138753293" lon="14.961602903317">
        <ele>111</ele>
        <time>2013-07-15T15:29:04Z</time>
      </trkpt>
      <trkpt lat="59.591091730834" lon="14.961865172968">
        <ele>111</ele>
        <time>2013-07-15T15:29:15Z</time>
      </trkpt>
      <trkpt lat="59.591058370872" lon="14.962023842335">
        <ele>111</ele>
        <time>2013-07-15T15:29:26Z</time>
      </trkpt>
      <trkpt lat="59.591015120268" lon="14.96221285418">
        <ele>111</ele>
        <time>2013-07-15T15:29:35Z</time>
      </trkpt>
      <trkpt lat="59.590984107238" lon="14.962571934776">
        <ele>111</ele>
        <time>2013-07-15T15:29:45Z</time>
      </trkpt>
      <trkpt lat="59.590897857487" lon="14.962952389217">
        <ele>111</ele>
        <time>2013-07-15T15:29:56Z</time>
      </trkpt>
      <trkpt lat="59.590803225836" lon="14.963336615513">
        <ele>111</ele>
        <time>2013-07-15T15:30:08Z</time>
      </trkpt>
      <trkpt lat="59.590690070186" lon="14.963675244273">
        <ele>111</ele>
        <time>2013-07-15T15:30:20Z</time>
      </trkpt>
      <trkpt lat="59.590560569831" lon="14.963915385708">
        <ele>111</ele>
        <time>2013-07-15T15:30:32Z</time>
      </trkpt>
      <trkpt lat="59.590465770542" lon="14.963985206935">
        <ele>111</ele>
        <time>2013-07-15T15:30:43Z</time>
      </trkpt>
      <trkpt lat="59.590412461658" lon="14.964038851095">
        <ele>111</ele>
        <time>2013-07-15T15:30:54Z</time>
      </trkpt>
      <trkpt lat="59.590370635977" lon="14.964096434748">
        <ele>111</ele>
        <time>2013-07-15T15:31:03Z</time>
      </trkpt>
      <trkpt lat="59.590349513589" lon="14.964156532971">
        <ele>111.8</ele>
        <time>2013-07-15T15:31:09Z</time>
      </trkpt>
      <trkpt lat="59.590341802241" lon="14.964180253748">
        <ele>111.4</ele>
        <time>2013-07-15T15:31:13Z</time>
      </trkpt>
      <trkpt lat="59.590340461137" lon="14.964188635648">
        <ele>111</ele>
        <time>2013-07-15T15:31:14Z</time>
      </trkpt>
      <trkpt lat="59.590337862748" lon="14.964198191014">
        <ele>110</ele>
        <time>2013-07-15T15:31:15Z</time>
      </trkpt>
      <trkpt lat="59.5903385333" lon="14.964195508806">
        <ele>109.6</ele>
        <time>2013-07-15T15:31:16Z</time>
      </trkpt>
      <trkpt lat="59.590321853319" lon="14.964226018922">
        <ele>109.6</ele>
        <time>2013-07-15T15:31:19Z</time>
      </trkpt>
      <trkpt lat="59.590275836688" lon="14.964258624513">
        <ele>109.6</ele>
        <time>2013-07-15T15:31:23Z</time>
      </trkpt>
      <trkpt lat="59.590142145383" lon="14.964299444366">
        <ele>109.6</ele>
        <time>2013-07-15T15:31:31Z</time>
      </trkpt>
      <trkpt lat="59.589955731927" lon="14.96437286981">
        <ele>110</ele>
        <time>2013-07-15T15:31:41Z</time>
      </trkpt>
      <trkpt lat="59.589936705014" lon="14.964381084072">
        <ele>110.4</ele>
        <time>2013-07-15T15:31:42Z</time>
      </trkpt>
      <trkpt lat="59.589917845739" lon="14.964389130696">
        <ele>110.8</ele>
        <time>2013-07-15T15:31:43Z</time>
      </trkpt>
      <trkpt lat="59.589899070283" lon="14.964396506768">
        <ele>111.4</ele>
        <time>2013-07-15T15:31:44Z</time>
      </trkpt>
      <trkpt lat="59.589881887388" lon="14.964404804849">
        <ele>111.8</ele>
        <time>2013-07-15T15:31:45Z</time>
      </trkpt>
      <trkpt lat="59.589783902977" lon="14.964440847019">
        <ele>111.8</ele>
        <time>2013-07-15T15:31:51Z</time>
      </trkpt>
      <trkpt lat="59.589594891132" lon="14.964452162584">
        <ele>111.8</ele>
        <time>2013-07-15T15:32:01Z</time>
      </trkpt>
      <trkpt lat="59.589422056354" lon="14.964499185043">
        <ele>111.8</ele>
        <time>2013-07-15T15:32:10Z</time>
      </trkpt>
      <trkpt lat="59.589211503026" lon="14.964589039011">
        <ele>111.8</ele>
        <time>2013-07-15T15:32:21Z</time>
      </trkpt>
      <trkpt lat="59.589075548608" lon="14.964665314301">
        <ele>111.8</ele>
        <time>2013-07-15T15:32:29Z</time>
      </trkpt>
      <trkpt lat="59.588933894498" lon="14.96479867033">
        <ele>111.8</ele>
        <time>2013-07-15T15:32:38Z</time>
      </trkpt>
      <trkpt lat="59.588769776896" lon="14.964965386321">
        <ele>111.8</ele>
        <time>2013-07-15T15:32:48Z</time>
      </trkpt>
      <trkpt lat="59.58863616941" lon="14.965111482838">
        <ele>111.8</ele>
        <time>2013-07-15T15:32:56Z</time>
      </trkpt>
      <trkpt lat="59.588531060384" lon="14.96533008279">
        <ele>111.8</ele>
        <time>2013-07-15T15:33:04Z</time>
      </trkpt>
      <trkpt lat="59.588416815087" lon="14.965664604419">
        <ele>111.8</ele>
        <time>2013-07-15T15:33:14Z</time>
      </trkpt>
      <trkpt lat="59.588320842332" lon="14.96601488402">
        <ele>111.8</ele>
        <time>2013-07-15T15:33:24Z</time>
      </trkpt>
      <trkpt lat="59.588235346952" lon="14.966340856111">
        <ele>111.8</ele>
        <time>2013-07-15T15:33:34Z</time>
      </trkpt>
      <trkpt lat="59.588130657021" lon="14.966688369685">
        <ele>111.8</ele>
        <time>2013-07-15T15:33:45Z</time>
      </trkpt>
      <trkpt lat="59.588039881044" lon="14.966976371769">
        <ele>111.8</ele>
        <time>2013-07-15T15:33:54Z</time>
      </trkpt>
      <trkpt lat="59.587944495022" lon="14.967287507897">
        <ele>111.8</ele>
        <time>2013-07-15T15:34:04Z</time>
      </trkpt>
      <trkpt lat="59.587861262755" lon="14.967669638718">
        <ele>111.8</ele>
        <time>2013-07-15T15:34:15Z</time>
      </trkpt>
      <trkpt lat="59.587812061002" lon="14.968029976599">
        <ele>111.8</ele>
        <time>2013-07-15T15:34:25Z</time>
      </trkpt>
      <trkpt lat="59.587783478723" lon="14.968412526515">
        <ele>111.8</ele>
        <time>2013-07-15T15:34:35Z</time>
      </trkpt>
      <trkpt lat="59.587754812625" lon="14.968807565462">
        <ele>111.8</ele>
        <time>2013-07-15T15:34:46Z</time>
      </trkpt>
      <trkpt lat="59.587699659723" lon="14.969141667996">
        <ele>111.8</ele>
        <time>2013-07-15T15:34:56Z</time>
      </trkpt>
      <trkpt lat="59.587649033047" lon="14.969426484958">
        <ele>111.8</ele>
        <time>2013-07-15T15:35:06Z</time>
      </trkpt>
      <trkpt lat="59.587578960363" lon="14.969768215021">
        <ele>111.8</ele>
        <time>2013-07-15T15:35:16Z</time>
      </trkpt>
      <trkpt lat="59.587505870195" lon="14.970159230656">
        <ele>111.8</ele>
        <time>2013-07-15T15:35:27Z</time>
      </trkpt>
      <trkpt lat="59.587480473038" lon="14.970437761193">
        <ele>111.8</ele>
        <time>2013-07-15T15:35:35Z</time>
      </trkpt>
      <trkpt lat="59.587446442524" lon="14.970779323618">
        <ele>111.8</ele>
        <time>2013-07-15T15:35:44Z</time>
      </trkpt>
      <trkpt lat="59.587424398127" lon="14.971078892724">
        <ele>111.8</ele>
        <time>2013-07-15T15:35:53Z</time>
      </trkpt>
      <trkpt lat="59.587412244372" lon="14.971407379385">
        <ele>111.8</ele>
        <time>2013-07-15T15:36:02Z</time>
      </trkpt>
      <trkpt lat="59.587328509191" lon="14.971680294049">
        <ele>111.8</ele>
        <time>2013-07-15T15:36:10Z</time>
      </trkpt>
      <trkpt lat="59.587234799549" lon="14.972041889215">
        <ele>111.8</ele>
        <time>2013-07-15T15:36:20Z</time>
      </trkpt>
      <trkpt lat="59.587174785145" lon="14.972436173791">
        <ele>111.8</ele>
        <time>2013-07-15T15:36:32Z</time>
      </trkpt>
      <trkpt lat="59.58710731085" lon="14.972848982366">
        <ele>111.8</ele>
        <time>2013-07-15T15:36:43Z</time>
      </trkpt>
      <trkpt lat="59.587072358327" lon="14.973243183123">
        <ele>111.8</ele>
        <time>2013-07-15T15:36:54Z</time>
      </trkpt>
      <trkpt lat="59.587059031106" lon="14.973665295607">
        <ele>111.8</ele>
        <time>2013-07-15T15:37:05Z</time>
      </trkpt>
      <trkpt lat="59.587072525965" lon="14.974057987622">
        <ele>111.8</ele>
        <time>2013-07-15T15:37:16Z</time>
      </trkpt>
      <trkpt lat="59.587045368609" lon="14.974297207048">
        <ele>111.8</ele>
        <time>2013-07-15T15:37:24Z</time>
      </trkpt>
      <trkpt lat="59.586967249301" lon="14.974624268786">
        <ele>111.8</ele>
        <time>2013-07-15T15:37:34Z</time>
      </trkpt>
      <trkpt lat="59.586906312888" lon="14.974929202308">
        <ele>111.8</ele>
        <time>2013-07-15T15:37:43Z</time>
      </trkpt>
      <trkpt lat="59.586860715352" lon="14.975358523226">
        <ele>111.8</ele>
        <time>2013-07-15T15:37:55Z</time>
      </trkpt>
      <trkpt lat="59.586829367046" lon="14.975766805575">
        <ele>111.8</ele>
        <time>2013-07-15T15:38:06Z</time>
      </trkpt>
      <trkpt lat="59.586783434234" lon="14.976166622205">
        <ele>111.8</ele>
        <time>2013-07-15T15:38:17Z</time>
      </trkpt>
      <trkpt lat="59.586731214997" lon="14.976587142128">
        <ele>111.8</ele>
        <time>2013-07-15T15:38:29Z</time>
      </trkpt>
      <trkpt lat="59.586692490619" lon="14.976921160843">
        <ele>111.8</ele>
        <time>2013-07-15T15:38:38Z</time>
      </trkpt>
      <trkpt lat="59.586669188937" lon="14.977351655227">
        <ele>111.8</ele>
        <time>2013-07-15T15:38:49Z</time>
      </trkpt>
      <trkpt lat="59.58662870436" lon="14.9777512204">
        <ele>111.8</ele>
        <time>2013-07-15T15:39:00Z</time>
      </trkpt>
      <trkpt lat="59.586584364109" lon="14.978065709288">
        <ele>111.8</ele>
        <time>2013-07-15T15:39:09Z</time>
      </trkpt>
      <trkpt lat="59.586553602536" lon="14.978399392727">
        <ele>111.8</ele>
        <time>2013-07-15T15:39:18Z</time>
      </trkpt>
      <trkpt lat="59.586466849871" lon="14.978751600165">
        <ele>111.8</ele>
        <time>2013-07-15T15:39:29Z</time>
      </trkpt>
      <trkpt lat="59.586401638689" lon="14.979111099856">
        <ele>111.8</ele>
        <time>2013-07-15T15:39:39Z</time>
      </trkpt>
      <trkpt lat="59.586357633714" lon="14.979453165195">
        <ele>111.8</ele>
        <time>2013-07-15T15:39:49Z</time>
      </trkpt>
      <trkpt lat="59.586291165247" lon="14.979769330463">
        <ele>111.8</ele>
        <time>2013-07-15T15:39:59Z</time>
      </trkpt>
      <trkpt lat="59.586226792255" lon="14.980121873177">
        <ele>111.8</ele>
        <time>2013-07-15T15:40:09Z</time>
      </trkpt>
      <trkpt lat="59.586179518339" lon="14.980442145576">
        <ele>111.8</ele>
        <time>2013-07-15T15:40:19Z</time>
      </trkpt>
      <trkpt lat="59.586123108152" lon="14.980791838444">
        <ele>111.8</ele>
        <time>2013-07-15T15:40:29Z</time>
      </trkpt>
      <trkpt lat="59.586049850346" lon="14.981132562679">
        <ele>111.8</ele>
        <time>2013-07-15T15:40:39Z</time>
      </trkpt>
      <trkpt lat="59.585982292232" lon="14.981396843986">
        <ele>111.8</ele>
        <time>2013-07-15T15:40:47Z</time>
      </trkpt>
      <trkpt lat="59.585870226229" lon="14.981731617072">
        <ele>111.8</ele>
        <time>2013-07-15T15:40:58Z</time>
      </trkpt>
      <trkpt lat="59.585801159373" lon="14.982066390158">
        <ele>111.8</ele>
        <time>2013-07-15T15:41:09Z</time>
      </trkpt>
      <trkpt lat="59.585796046414" lon="14.982329078904">
        <ele>111.2</ele>
        <time>2013-07-15T15:41:17Z</time>
      </trkpt>
      <trkpt lat="59.585800237364" lon="14.982353051138">
        <ele>110.8</ele>
        <time>2013-07-15T15:41:18Z</time>
      </trkpt>
      <trkpt lat="59.58580057264" lon="14.982378951209">
        <ele>110.4</ele>
        <time>2013-07-15T15:41:19Z</time>
      </trkpt>
      <trkpt lat="59.585804093038" lon="14.982398313398">
        <ele>110</ele>
        <time>2013-07-15T15:41:20Z</time>
      </trkpt>
      <trkpt lat="59.585806356151" lon="14.982420022519">
        <ele>109.4</ele>
        <time>2013-07-15T15:41:21Z</time>
      </trkpt>
      <trkpt lat="59.58582655653" lon="14.982533597264">
        <ele>109.4</ele>
        <time>2013-07-15T15:41:27Z</time>
      </trkpt>
      <trkpt lat="59.58582152739" lon="14.98275437651">
        <ele>109.4</ele>
        <time>2013-07-15T15:41:35Z</time>
      </trkpt>
      <trkpt lat="59.585789089437" lon="14.983038942015">
        <ele>109.4</ele>
        <time>2013-07-15T15:41:43Z</time>
      </trkpt>
      <trkpt lat="59.585741228788" lon="14.983439764473">
        <ele>109.4</ele>
        <time>2013-07-15T15:41:53Z</time>
      </trkpt>
      <trkpt lat="59.585720190219" lon="14.983858691835">
        <ele>109.4</ele>
        <time>2013-07-15T15:42:03Z</time>
      </trkpt>
      <trkpt lat="59.585695212157" lon="14.984254820429">
        <ele>109.4</ele>
        <time>2013-07-15T15:42:13Z</time>
      </trkpt>
      <trkpt lat="59.585667719525" lon="14.984787322536">
        <ele>109.4</ele>
        <time>2013-07-15T15:42:26Z</time>
      </trkpt>
      <trkpt lat="59.585636035943" lon="14.985243633172">
        <ele>109.4</ele>
        <time>2013-07-15T15:42:38Z</time>
      </trkpt>
      <trkpt lat="59.585578787566" lon="14.985611011849">
        <ele>109.4</ele>
        <time>2013-07-15T15:42:48Z</time>
      </trkpt>
      <trkpt lat="59.585535117867" lon="14.986003955321">
        <ele>109.4</ele>
        <time>2013-07-15T15:42:58Z</time>
      </trkpt>
      <trkpt lat="59.585542326301" lon="14.986394048947">
        <ele>109.4</ele>
        <time>2013-07-15T15:43:08Z</time>
      </trkpt>
      <trkpt lat="59.585531178374" lon="14.986809120635">
        <ele>109.4</ele>
        <time>2013-07-15T15:43:19Z</time>
      </trkpt>
      <trkpt lat="59.585504272475" lon="14.987276830655">
        <ele>109.4</ele>
        <time>2013-07-15T15:43:30Z</time>
      </trkpt>
      <trkpt lat="59.585495220023" lon="14.987784522338">
        <ele>109.4</ele>
        <time>2013-07-15T15:43:42Z</time>
      </trkpt>
      <trkpt lat="59.585508211968" lon="14.988216190188">
        <ele>109.4</ele>
        <time>2013-07-15T15:43:53Z</time>
      </trkpt>
      <trkpt lat="59.585493878919" lon="14.988678619611">
        <ele>109.4</ele>
        <time>2013-07-15T15:44:05Z</time>
      </trkpt>
      <trkpt lat="59.585487257218" lon="14.989076508404">
        <ele>109.4</ele>
        <time>2013-07-15T15:44:15Z</time>
      </trkpt>
      <trkpt lat="59.585491112892" lon="14.98946408746">
        <ele>109.4</ele>
        <time>2013-07-15T15:44:25Z</time>
      </trkpt>
      <trkpt lat="59.585505445941" lon="14.98997622155">
        <ele>109.4</ele>
        <time>2013-07-15T15:44:38Z</time>
      </trkpt>
      <trkpt lat="59.585519024619" lon="14.990437309869">
        <ele>109.4</ele>
        <time>2013-07-15T15:44:50Z</time>
      </trkpt>
      <trkpt lat="59.585560598843" lon="14.99085464467">
        <ele>109.4</ele>
        <time>2013-07-15T15:45:02Z</time>
      </trkpt>
      <trkpt lat="59.585563783965" lon="14.991160164925">
        <ele>109.4</ele>
        <time>2013-07-15T15:45:10Z</time>
      </trkpt>
      <trkpt lat="59.58556336487" lon="14.991348590037">
        <ele>110.2</ele>
        <time>2013-07-15T15:45:15Z</time>
      </trkpt>
      <trkpt lat="59.585562610499" lon="14.991386308587">
        <ele>110.6</ele>
        <time>2013-07-15T15:45:16Z</time>
      </trkpt>
      <trkpt lat="59.585561353214" lon="14.991423021309">
        <ele>111.2</ele>
        <time>2013-07-15T15:45:17Z</time>
      </trkpt>
      <trkpt lat="59.58555917392" lon="14.991454369615">
        <ele>111.6</ele>
        <time>2013-07-15T15:45:18Z</time>
      </trkpt>
      <trkpt lat="59.585550456744" lon="14.991522430643">
        <ele>111.6</ele>
        <time>2013-07-15T15:45:20Z</time>
      </trkpt>
      <trkpt lat="59.585532687116" lon="14.991889054949">
        <ele>111.6</ele>
        <time>2013-07-15T15:45:30Z</time>
      </trkpt>
      <trkpt lat="59.58553738098" lon="14.992277472195">
        <ele>111.6</ele>
        <time>2013-07-15T15:45:40Z</time>
      </trkpt>
      <trkpt lat="59.585553809504" lon="14.992673768427">
        <ele>111.6</ele>
        <time>2013-07-15T15:45:51Z</time>
      </trkpt>
      <trkpt lat="59.585586582733" lon="14.993056234524">
        <ele>111.6</ele>
        <time>2013-07-15T15:46:02Z</time>
      </trkpt>
      <trkpt lat="59.585643244377" lon="14.993342895504">
        <ele>111.6</ele>
        <time>2013-07-15T15:46:10Z</time>
      </trkpt>
      <trkpt lat="59.585718346201" lon="14.993671298346">
        <ele>111.6</ele>
        <time>2013-07-15T15:46:20Z</time>
      </trkpt>
      <trkpt lat="59.58582320377" lon="14.993881432579">
        <ele>111.6</ele>
        <time>2013-07-15T15:46:29Z</time>
      </trkpt>
      <trkpt lat="59.585910962263" lon="14.99400623907">
        <ele>111.6</ele>
        <time>2013-07-15T15:46:37Z</time>
      </trkpt>
      <trkpt lat="59.585987824286" lon="14.994088297871">
        <ele>111.6</ele>
        <time>2013-07-15T15:46:44Z</time>
      </trkpt>
      <trkpt lat="59.586136016278" lon="14.99427110711">
        <ele>111.6</ele>
        <time>2013-07-15T15:46:55Z</time>
      </trkpt>
      <trkpt lat="59.586263085882" lon="14.994324667451">
        <ele>111.6</ele>
        <time>2013-07-15T15:47:04Z</time>
      </trkpt>
      <trkpt lat="59.586474393581" lon="14.994363559467">
        <ele>111.6</ele>
        <time>2013-07-15T15:47:16Z</time>
      </trkpt>
      <trkpt lat="59.586674218077" lon="14.994387028787">
        <ele>111.6</ele>
        <time>2013-07-15T15:47:26Z</time>
      </trkpt>
      <trkpt lat="59.586822158612" lon="14.994362302182">
        <ele>111.6</ele>
        <time>2013-07-15T15:47:35Z</time>
      </trkpt>
      <trkpt lat="59.587033466311" lon="14.994306646366">
        <ele>111.6</ele>
        <time>2013-07-15T15:47:47Z</time>
      </trkpt>
      <trkpt lat="59.587263381828" lon="14.994271693843">
        <ele>111.6</ele>
        <time>2013-07-15T15:47:59Z</time>
      </trkpt>
      <trkpt lat="59.587396905495" lon="14.99418980268">
        <ele>111.6</ele>
        <time>2013-07-15T15:48:07Z</time>
      </trkpt>
      <trkpt lat="59.58757334449" lon="14.99408502893">
        <ele>111.6</ele>
        <time>2013-07-15T15:48:17Z</time>
      </trkpt>
      <trkpt lat="59.587765541457" lon="14.993969107253">
        <ele>111.6</ele>
        <time>2013-07-15T15:48:28Z</time>
      </trkpt>
      <trkpt lat="59.587891689052" lon="14.99385704125">
        <ele>111.6</ele>
        <time>2013-07-15T15:48:37Z</time>
      </trkpt>
      <trkpt lat="59.588035606275" lon="14.993634837081">
        <ele>111.6</ele>
        <time>2013-07-15T15:48:47Z</time>
      </trkpt>
      <trkpt lat="59.588183127715" lon="14.993427217418">
        <ele>111.6</ele>
        <time>2013-07-15T15:48:56Z</time>
      </trkpt>
      <trkpt lat="59.588253703313" lon="14.993192105123">
        <ele>111.6</ele>
        <time>2013-07-15T15:49:05Z</time>
      </trkpt>
      <trkpt lat="59.588311873699" lon="14.992847609033">
        <ele>111.6</ele>
        <time>2013-07-15T15:49:15Z</time>
      </trkpt>
      <trkpt lat="59.588270131837" lon="14.992650718202">
        <ele>111.6</ele>
        <time>2013-07-15T15:49:22Z</time>
      </trkpt>
      <trkpt lat="59.588125376424" lon="14.992464220927">
        <ele>111.6</ele>
        <time>2013-07-15T15:49:31Z</time>
      </trkpt>
      <trkpt lat="59.588010795851" lon="14.992277807471">
        <ele>111.6</ele>
        <time>2013-07-15T15:49:40Z</time>
      </trkpt>
      <trkpt lat="59.587924294643" lon="14.992130286031">
        <ele>110.8</ele>
        <time>2013-07-15T15:49:47Z</time>
      </trkpt>
      <trkpt lat="59.587914655458" lon="14.992109247462">
        <ele>110.4</ele>
        <time>2013-07-15T15:49:48Z</time>
      </trkpt>
      <trkpt lat="59.587905183911" lon="14.992093573309">
        <ele>110</ele>
        <time>2013-07-15T15:49:49Z</time>
      </trkpt>
      <trkpt lat="59.587892946337" lon="14.992076558052">
        <ele>109.6</ele>
        <time>2013-07-15T15:49:50Z</time>
      </trkpt>
      <trkpt lat="59.587778281945" lon="14.991941022729">
        <ele>109.6</ele>
        <time>2013-07-15T15:49:59Z</time>
      </trkpt>
      <trkpt lat="59.587700246456" lon="14.991841529576">
        <ele>109.6</ele>
        <time>2013-07-15T15:50:07Z</time>
      </trkpt>
      <trkpt lat="59.587604944253" lon="14.991739940948">
        <ele>109.6</ele>
        <time>2013-07-15T15:50:15Z</time>
      </trkpt>
      <trkpt lat="59.587511737525" lon="14.991625611832">
        <ele>109.6</ele>
        <time>2013-07-15T15:50:23Z</time>
      </trkpt>
      <trkpt lat="59.587388188319" lon="14.991570207473">
        <ele>109.6</ele>
        <time>2013-07-15T15:50:30Z</time>
      </trkpt>
      <trkpt lat="59.587231865884" lon="14.99158051721">
        <ele>109.6</ele>
        <time>2013-07-15T15:50:39Z</time>
      </trkpt>
      <trkpt lat="59.587215604998" lon="14.99158051721">
        <ele>110</ele>
        <time>2013-07-15T15:50:40Z</time>
      </trkpt>
      <trkpt lat="59.587196913361" lon="14.991583283237">
        <ele>110.4</ele>
        <time>2013-07-15T15:50:41Z</time>
      </trkpt>
      <trkpt lat="59.587176461525" lon="14.991586552178">
        <ele>110.8</ele>
        <time>2013-07-15T15:50:42Z</time>
      </trkpt>
      <trkpt lat="59.587157015517" lon="14.991593844431">
        <ele>111.2</ele>
        <time>2013-07-15T15:50:43Z</time>
      </trkpt>
      <trkpt lat="59.587138491518" lon="14.991596694277">
        <ele>111.6</ele>
        <time>2013-07-15T15:50:44Z</time>
      </trkpt>
      <trkpt lat="59.587052241767" lon="14.991574314604">
        <ele>111.6</ele>
        <time>2013-07-15T15:50:49Z</time>
      </trkpt>
      <trkpt lat="59.586934559891" lon="14.991544055945">
        <ele>111.6</ele>
        <time>2013-07-15T15:50:57Z</time>
      </trkpt>
      <trkpt lat="59.586732723739" lon="14.991534835855">
        <ele>111.6</ele>
        <time>2013-07-15T15:51:08Z</time>
      </trkpt>
      <trkpt lat="59.586600038262" lon="14.991529974353">
        <ele>111.6</ele>
        <time>2013-07-15T15:51:17Z</time>
      </trkpt>
      <trkpt lat="59.58644849351" lon="14.991495273287">
        <ele>111.6</ele>
        <time>2013-07-15T15:51:26Z</time>
      </trkpt>
      <trkpt lat="59.586304660106" lon="14.991565010695">
        <ele>111.6</ele>
        <time>2013-07-15T15:51:35Z</time>
      </trkpt>
      <trkpt lat="59.586162838358" lon="14.991683027847">
        <ele>111.6</ele>
        <time>2013-07-15T15:51:43Z</time>
      </trkpt>
      <trkpt lat="59.586018669678" lon="14.991866591457">
        <ele>111.6</ele>
        <time>2013-07-15T15:51:52Z</time>
      </trkpt>
      <trkpt lat="59.585866705831" lon="14.99201553782">
        <ele>111.6</ele>
        <time>2013-07-15T15:52:01Z</time>
      </trkpt>
      <trkpt lat="59.585746509385" lon="14.992175799748">
        <ele>111.6</ele>
        <time>2013-07-15T15:52:09Z</time>
      </trkpt>
      <trkpt lat="59.585574596616" lon="14.992402697781">
        <ele>111.6</ele>
        <time>2013-07-15T15:52:20Z</time>
      </trkpt>
      <trkpt lat="59.585432104316" lon="14.992552901429">
        <ele>111.6</ele>
        <time>2013-07-15T15:52:30Z</time>
      </trkpt>
      <trkpt lat="59.58533537719" lon="14.992679635757">
        <ele>111.6</ele>
        <time>2013-07-15T15:52:39Z</time>
      </trkpt>
      <trkpt lat="59.585227921232" lon="14.992766388422">
        <ele>111.6</ele>
        <time>2013-07-15T15:52:50Z</time>
      </trkpt>
      <trkpt lat="59.585192214338" lon="14.992794970701">
        <ele>111.6</ele>
        <time>2013-07-15T15:52:55Z</time>
      </trkpt>
      <trkpt lat="59.584686115216" lon="14.993079452387">
        <ele>111.6</ele>
        <time>2013-07-15T15:55:59Z</time>
      </trkpt>
      <trkpt lat="59.584686115216" lon="14.993079452387">
        <ele>111.6</ele>
        <time>2013-07-15T15:56:02Z</time>
      </trkpt>
      <trkpt lat="59.584638925119" lon="14.993021282001">
        <ele>111.6</ele>
        <time>2013-07-15T15:56:10Z</time>
      </trkpt>
      <trkpt lat="59.58457430067" lon="14.993001752174">
        <ele>111.6</ele>
        <time>2013-07-15T15:56:15Z</time>
      </trkpt>
      <trkpt lat="59.584486793634" lon="14.993026897874">
        <ele>111.6</ele>
        <time>2013-07-15T15:56:19Z</time>
      </trkpt>
      <trkpt lat="59.584342205859" lon="14.993055061058">
        <ele>111.6</ele>
        <time>2013-07-15T15:56:27Z</time>
      </trkpt>
      <trkpt lat="59.584177920619" lon="14.993054809601">
        <ele>111.6</ele>
        <time>2013-07-15T15:56:36Z</time>
      </trkpt>
      <trkpt lat="59.584014892664" lon="14.993008373875">
        <ele>111.6</ele>
        <time>2013-07-15T15:56:45Z</time>
      </trkpt>
      <trkpt lat="59.583877010409" lon="14.99304986428">
        <ele>111.6</ele>
        <time>2013-07-15T15:56:55Z</time>
      </trkpt>
      <trkpt lat="59.583725633295" lon="14.993031256462">
        <ele>112</ele>
        <time>2013-07-15T15:57:03Z</time>
      </trkpt>
      <trkpt lat="59.5837000685" lon="14.993037626706">
        <ele>112.4</ele>
        <time>2013-07-15T15:57:04Z</time>
      </trkpt>
      <trkpt lat="59.583676096266" lon="14.993034022489">
        <ele>112.8</ele>
        <time>2013-07-15T15:57:05Z</time>
      </trkpt>
      <trkpt lat="59.58365145348" lon="14.993027316969">
        <ele>113.2</ele>
        <time>2013-07-15T15:57:06Z</time>
      </trkpt>
      <trkpt lat="59.583631001644" lon="14.993021030544">
        <ele>113.6</ele>
        <time>2013-07-15T15:57:07Z</time>
      </trkpt>
      <trkpt lat="59.58344777331" lon="14.99297777994">
        <ele>113.6</ele>
        <time>2013-07-15T15:57:16Z</time>
      </trkpt>
      <trkpt lat="59.583213583024" lon="14.992913406948">
        <ele>113.6</ele>
        <time>2013-07-15T15:57:27Z</time>
      </trkpt>
      <trkpt lat="59.583027923939" lon="14.992848279585">
        <ele>113.6</ele>
        <time>2013-07-15T15:57:37Z</time>
      </trkpt>
      <trkpt lat="59.582860956491" lon="14.992803101144">
        <ele>113.2</ele>
        <time>2013-07-15T15:57:45Z</time>
      </trkpt>
      <trkpt lat="59.582840588474" lon="14.992798574918">
        <ele>112.8</ele>
        <time>2013-07-15T15:57:46Z</time>
      </trkpt>
      <trkpt lat="59.582820220457" lon="14.99279505452">
        <ele>112.2</ele>
        <time>2013-07-15T15:57:47Z</time>
      </trkpt>
      <trkpt lat="59.582799265707" lon="14.992794467787">
        <ele>111.8</ele>
        <time>2013-07-15T15:57:48Z</time>
      </trkpt>
      <trkpt lat="59.582778730052" lon="14.992795473615">
        <ele>111.4</ele>
        <time>2013-07-15T15:57:49Z</time>
      </trkpt>
      <trkpt lat="59.582602123419" lon="14.99280930375">
        <ele>111.4</ele>
        <time>2013-07-15T15:57:58Z</time>
      </trkpt>
      <trkpt lat="59.582394922851" lon="14.992838221305">
        <ele>111.4</ele>
        <time>2013-07-15T15:58:08Z</time>
      </trkpt>
      <trkpt lat="59.582280593735" lon="14.992895804958">
        <ele>111.4</ele>
        <time>2013-07-15T15:58:16Z</time>
      </trkpt>
      <trkpt lat="59.582116140857" lon="14.992942995055">
        <ele>111.4</ele>
        <time>2013-07-15T15:58:25Z</time>
      </trkpt>
      <trkpt lat="59.581949843961" lon="14.992943749426">
        <ele>111.4</ele>
        <time>2013-07-15T15:58:33Z</time>
      </trkpt>
      <trkpt lat="59.581759826288" lon="14.992880633719">
        <ele>111.4</ele>
        <time>2013-07-15T15:58:43Z</time>
      </trkpt>
      <trkpt lat="59.581538795585" lon="14.992876694226">
        <ele>111.4</ele>
        <time>2013-07-15T15:58:56Z</time>
      </trkpt>
      <trkpt lat="59.581346347161" lon="14.992909635093">
        <ele>111.4</ele>
        <time>2013-07-15T15:59:06Z</time>
      </trkpt>
      <trkpt lat="59.581145768294" lon="14.993020276173">
        <ele>111.4</ele>
        <time>2013-07-15T15:59:17Z</time>
      </trkpt>
      <trkpt lat="59.580921384831" lon="14.993122283896">
        <ele>111.4</ele>
        <time>2013-07-15T15:59:28Z</time>
      </trkpt>
      <trkpt lat="59.580710831503" lon="14.993233092614">
        <ele>111.4</ele>
        <time>2013-07-15T15:59:38Z</time>
      </trkpt>
      <trkpt lat="59.580512264292" lon="14.9933667001">
        <ele>111.4</ele>
        <time>2013-07-15T15:59:48Z</time>
      </trkpt>
      <trkpt lat="59.580329790329" lon="14.993472563497">
        <ele>111.4</ele>
        <time>2013-07-15T15:59:57Z</time>
      </trkpt>
      <trkpt lat="59.580146394357" lon="14.993594520142">
        <ele>111.4</ele>
        <time>2013-07-15T16:00:07Z</time>
      </trkpt>
      <trkpt lat="59.579947994784" lon="14.993816137578">
        <ele>111.4</ele>
        <time>2013-07-15T16:00:19Z</time>
      </trkpt>
      <trkpt lat="59.579749008478" lon="14.993986793062">
        <ele>111.4</ele>
        <time>2013-07-15T16:00:30Z</time>
      </trkpt>
      <trkpt lat="59.579560583366" lon="14.994130375009">
        <ele>111.4</ele>
        <time>2013-07-15T16:00:40Z</time>
      </trkpt>
      <trkpt lat="59.579385653113" lon="14.9942300358">
        <ele>111.4</ele>
        <time>2013-07-15T16:00:49Z</time>
      </trkpt>
      <trkpt lat="59.579161437288" lon="14.994279153734">
        <ele>111.4</ele>
        <time>2013-07-15T16:00:59Z</time>
      </trkpt>
      <trkpt lat="59.578900844017" lon="14.994339503414">
        <ele>111.4</ele>
        <time>2013-07-15T16:01:11Z</time>
      </trkpt>
      <trkpt lat="59.578695152191" lon="14.994334725731">
        <ele>111.4</ele>
        <time>2013-07-15T16:01:22Z</time>
      </trkpt>
      <trkpt lat="59.578472780384" lon="14.99438174819">
        <ele>111.4</ele>
        <time>2013-07-15T16:01:33Z</time>
      </trkpt>
      <trkpt lat="59.578271782422" lon="14.994490796709">
        <ele>111.4</ele>
        <time>2013-07-15T16:01:44Z</time>
      </trkpt>
      <trkpt lat="59.578093247952" lon="14.99464661623">
        <ele>111.4</ele>
        <time>2013-07-15T16:01:56Z</time>
      </trkpt>
      <trkpt lat="59.577900464252" lon="14.994789527625">
        <ele>111.4</ele>
        <time>2013-07-15T16:02:07Z</time>
      </trkpt>
      <trkpt lat="59.577716062452" lon="14.994840070482">
        <ele>111.4</ele>
        <time>2013-07-15T16:02:17Z</time>
      </trkpt>
      <trkpt lat="59.577416577165" lon="14.99498356861">
        <ele>111.4</ele>
        <time>2013-07-15T16:02:31Z</time>
      </trkpt>
      <trkpt lat="59.577212058805" lon="14.995055904407">
        <ele>111.4</ele>
        <time>2013-07-15T16:02:42Z</time>
      </trkpt>
      <trkpt lat="59.576972504103" lon="14.995074763682">
        <ele>111.4</ele>
        <time>2013-07-15T16:02:54Z</time>
      </trkpt>
      <trkpt lat="59.576787850846" lon="14.99515372118">
        <ele>111.4</ele>
        <time>2013-07-15T16:03:04Z</time>
      </trkpt>
      <trkpt lat="59.576597581716" lon="14.995231253755">
        <ele>111.4</ele>
        <time>2013-07-15T16:03:14Z</time>
      </trkpt>
      <trkpt lat="59.576449222086" lon="14.995279617318">
        <ele>111.4</ele>
        <time>2013-07-15T16:03:22Z</time>
      </trkpt>
      <trkpt lat="59.576228191383" lon="14.995324041388">
        <ele>111.4</ele>
        <time>2013-07-15T16:03:32Z</time>
      </trkpt>
      <trkpt lat="59.576061894487" lon="14.995425713835">
        <ele>111.4</ele>
        <time>2013-07-15T16:03:40Z</time>
      </trkpt>
      <trkpt lat="59.575921246205" lon="14.995547754299">
        <ele>111.4</ele>
        <time>2013-07-15T16:03:48Z</time>
      </trkpt>
      <trkpt lat="59.575769198539" lon="14.995657724827">
        <ele>111.4</ele>
        <time>2013-07-15T16:03:56Z</time>
      </trkpt>
      <trkpt lat="59.575602063453" lon="14.995843803007">
        <ele>111.4</ele>
        <time>2013-07-15T16:04:06Z</time>
      </trkpt>
      <trkpt lat="59.575395784894" lon="14.99599610213">
        <ele>111.4</ele>
        <time>2013-07-15T16:04:18Z</time>
      </trkpt>
      <trkpt lat="59.575191853267" lon="14.996165667967">
        <ele>111.4</ele>
        <time>2013-07-15T16:04:29Z</time>
      </trkpt>
      <trkpt lat="59.575001919413" lon="14.996424501039">
        <ele>111.4</ele>
        <time>2013-07-15T16:04:40Z</time>
      </trkpt>
      <trkpt lat="59.574841992761" lon="14.99670940182">
        <ele>111.4</ele>
        <time>2013-07-15T16:04:51Z</time>
      </trkpt>
      <trkpt lat="59.574650885441" lon="14.9969290076">
        <ele>111.4</ele>
        <time>2013-07-15T16:05:02Z</time>
      </trkpt>
      <trkpt lat="59.574545105863" lon="14.997100752731">
        <ele>111.4</ele>
        <time>2013-07-15T16:05:10Z</time>
      </trkpt>
      <trkpt lat="59.574402278287" lon="14.997182308618">
        <ele>111.4</ele>
        <time>2013-07-15T16:05:20Z</time>
      </trkpt>
      <trkpt lat="59.574218630858" lon="14.997281717952">
        <ele>111.4</ele>
        <time>2013-07-15T16:05:29Z</time>
      </trkpt>
      <trkpt lat="59.573989888807" lon="14.997292698241">
        <ele>111.4</ele>
        <time>2013-07-15T16:05:39Z</time>
      </trkpt>
      <trkpt lat="59.573800625505" lon="14.997304349082">
        <ele>111.4</ele>
        <time>2013-07-15T16:05:47Z</time>
      </trkpt>
      <trkpt lat="59.573596107145" lon="14.997438794758">
        <ele>111.4</ele>
        <time>2013-07-15T16:05:57Z</time>
      </trkpt>
      <trkpt lat="59.573448501886" lon="14.997646079145">
        <ele>111.4</ele>
        <time>2013-07-15T16:06:07Z</time>
      </trkpt>
      <trkpt lat="59.573294526383" lon="14.997721516245">
        <ele>111.4</ele>
        <time>2013-07-15T16:06:17Z</time>
      </trkpt>
      <trkpt lat="59.573075758793" lon="14.997908935529">
        <ele>111.4</ele>
        <time>2013-07-15T16:06:29Z</time>
      </trkpt>
      <trkpt lat="59.572929075543" lon="14.998140611245">
        <ele>111.4</ele>
        <time>2013-07-15T16:06:40Z</time>
      </trkpt>
      <trkpt lat="59.57278934927" lon="14.998128541309">
        <ele>111.4</ele>
        <time>2013-07-15T16:06:48Z</time>
      </trkpt>
      <trkpt lat="59.572582986892" lon="14.998170283171">
        <ele>111.4</ele>
        <time>2013-07-15T16:06:58Z</time>
      </trkpt>
      <trkpt lat="59.572406631716" lon="14.998307746331">
        <ele>111.4</ele>
        <time>2013-07-15T16:07:07Z</time>
      </trkpt>
      <trkpt lat="59.57228643527" lon="14.998513438157">
        <ele>111.4</ele>
        <time>2013-07-15T16:07:17Z</time>
      </trkpt>
      <trkpt lat="59.572177554389" lon="14.99884259537">
        <ele>111.4</ele>
        <time>2013-07-15T16:07:28Z</time>
      </trkpt>
      <trkpt lat="59.572152408689" lon="14.99898089672">
        <ele>111.4</ele>
        <time>2013-07-15T16:07:32Z</time>
      </trkpt>
      <trkpt lat="59.572083760928" lon="14.999145936331">
        <ele>111.4</ele>
        <time>2013-07-15T16:07:38Z</time>
      </trkpt>
      <trkpt lat="59.571991308571" lon="14.999450534577">
        <ele>111.4</ele>
        <time>2013-07-15T16:07:49Z</time>
      </trkpt>
      <trkpt lat="59.571937915868" lon="14.999788157509">
        <ele>111.4</ele>
        <time>2013-07-15T16:07:59Z</time>
      </trkpt>
      <trkpt lat="59.571918302222" lon="15.000110022469">
        <ele>111.4</ele>
        <time>2013-07-15T16:08:08Z</time>
      </trkpt>
      <trkpt lat="59.571895251997" lon="15.000431971248">
        <ele>111.4</ele>
        <time>2013-07-15T16:08:17Z</time>
      </trkpt>
      <trkpt lat="59.571890055219" lon="15.000800858667">
        <ele>111.4</ele>
        <time>2013-07-15T16:08:27Z</time>
      </trkpt>
      <trkpt lat="59.571852504307" lon="15.001262533719">
        <ele>111.4</ele>
        <time>2013-07-15T16:08:39Z</time>
      </trkpt>
      <trkpt lat="59.57181621068" lon="15.001586997068">
        <ele>111.4</ele>
        <time>2013-07-15T16:08:48Z</time>
      </trkpt>
      <trkpt lat="59.571768182393" lon="15.002010534475">
        <ele>111.4</ele>
        <time>2013-07-15T16:09:00Z</time>
      </trkpt>
      <trkpt lat="59.571732140223" lon="15.002442872877">
        <ele>111.4</ele>
        <time>2013-07-15T16:09:12Z</time>
      </trkpt>
      <trkpt lat="59.571688638162" lon="15.00281729235">
        <ele>111.4</ele>
        <time>2013-07-15T16:09:23Z</time>
      </trkpt>
      <trkpt lat="59.571646309567" lon="15.003049973894">
        <ele>111</ele>
        <time>2013-07-15T16:09:32Z</time>
      </trkpt>
      <trkpt lat="59.571638346762" lon="15.003080232553">
        <ele>110.2</ele>
        <time>2013-07-15T16:09:33Z</time>
      </trkpt>
      <trkpt lat="59.571628707577" lon="15.003110826488">
        <ele>109.8</ele>
        <time>2013-07-15T16:09:34Z</time>
      </trkpt>
      <trkpt lat="59.571619822763" lon="15.003144437907">
        <ele>109.4</ele>
        <time>2013-07-15T16:09:35Z</time>
      </trkpt>
      <trkpt lat="59.571548576613" lon="15.003420118598">
        <ele>109.4</ele>
        <time>2013-07-15T16:09:43Z</time>
      </trkpt>
      <trkpt lat="59.571428296348" lon="15.003783138687">
        <ele>109.4</ele>
        <time>2013-07-15T16:09:55Z</time>
      </trkpt>
      <trkpt lat="59.571324612245" lon="15.004171220657">
        <ele>109.4</ele>
        <time>2013-07-15T16:10:07Z</time>
      </trkpt>
      <trkpt lat="59.571187400542" lon="15.004546059225">
        <ele>109.4</ele>
        <time>2013-07-15T16:10:19Z</time>
      </trkpt>
      <trkpt lat="59.571064773345" lon="15.00500664463">
        <ele>109.4</ele>
        <time>2013-07-15T16:10:33Z</time>
      </trkpt>
      <trkpt lat="59.570935105352" lon="15.005299340578">
        <ele>109.4</ele>
        <time>2013-07-15T16:10:42Z</time>
      </trkpt>
      <trkpt lat="59.570831756525" lon="15.005617852778">
        <ele>109.4</ele>
        <time>2013-07-15T16:10:52Z</time>
      </trkpt>
      <trkpt lat="59.570731676639" lon="15.005864699733">
        <ele>109.4</ele>
        <time>2013-07-15T16:11:02Z</time>
      </trkpt>
      <trkpt lat="59.570557584576" lon="15.006202406484">
        <ele>109.4</ele>
        <time>2013-07-15T16:11:14Z</time>
      </trkpt>
      <trkpt lat="59.570364968514" lon="15.006549668601">
        <ele>109.4</ele>
        <time>2013-07-15T16:11:26Z</time>
      </trkpt>
      <trkpt lat="59.570245191163" lon="15.006818057039">
        <ele>109.4</ele>
        <time>2013-07-15T16:11:37Z</time>
      </trkpt>
      <trkpt lat="59.570102531225" lon="15.007091558436">
        <ele>109.4</ele>
        <time>2013-07-15T16:11:47Z</time>
      </trkpt>
      <trkpt lat="59.569905808032" lon="15.007275457322">
        <ele>109.4</ele>
        <time>2013-07-15T16:11:57Z</time>
      </trkpt>
      <trkpt lat="59.569649573349" lon="15.007454494706">
        <ele>109.4</ele>
        <time>2013-07-15T16:12:10Z</time>
      </trkpt>
      <trkpt lat="59.569433823243" lon="15.007548120529">
        <ele>109.4</ele>
        <time>2013-07-15T16:12:21Z</time>
      </trkpt>
      <trkpt lat="59.569307256553" lon="15.007724643343">
        <ele>109.4</ele>
        <time>2013-07-15T16:12:31Z</time>
      </trkpt>
      <trkpt lat="59.569166356814" lon="15.007975010696">
        <ele>109.4</ele>
        <time>2013-07-15T16:12:41Z</time>
      </trkpt>
      <trkpt lat="59.569051273327" lon="15.008363176485">
        <ele>109.4</ele>
        <time>2013-07-15T16:12:52Z</time>
      </trkpt>
      <trkpt lat="59.568967789603" lon="15.008794928154">
        <ele>109.4</ele>
        <time>2013-07-15T16:13:03Z</time>
      </trkpt>
      <trkpt lat="59.568903332792" lon="15.009207485272">
        <ele>109.4</ele>
        <time>2013-07-15T16:13:14Z</time>
      </trkpt>
      <trkpt lat="59.568806018933" lon="15.00957897108">
        <ele>109.4</ele>
        <time>2013-07-15T16:13:25Z</time>
      </trkpt>
      <trkpt lat="59.568653049258" lon="15.010016087165">
        <ele>109.4</ele>
        <time>2013-07-15T16:13:39Z</time>
      </trkpt>
      <trkpt lat="59.568540480341" lon="15.010291097304">
        <ele>109.4</ele>
        <time>2013-07-15T16:13:48Z</time>
      </trkpt>
      <trkpt lat="59.56845087783" lon="15.01051355293">
        <ele>109.4</ele>
        <time>2013-07-15T16:13:58Z</time>
      </trkpt>
      <trkpt lat="59.568387510666" lon="15.010812283846">
        <ele>109.4</ele>
        <time>2013-07-15T16:14:07Z</time>
      </trkpt>
      <trkpt lat="59.568319952552" lon="15.011294829829">
        <ele>109.4</ele>
        <time>2013-07-15T16:14:19Z</time>
      </trkpt>
      <trkpt lat="59.568208221825" lon="15.011750805189">
        <ele>109.4</ele>
        <time>2013-07-15T16:14:31Z</time>
      </trkpt>
      <trkpt lat="59.568105627369" lon="15.012023552215">
        <ele>109.4</ele>
        <time>2013-07-15T16:14:41Z</time>
      </trkpt>
      <trkpt lat="59.56802675369" lon="15.012325468253">
        <ele>109.4</ele>
        <time>2013-07-15T16:14:50Z</time>
      </trkpt>
      <trkpt lat="59.567925751795" lon="15.01267440675">
        <ele>109.4</ele>
        <time>2013-07-15T16:15:00Z</time>
      </trkpt>
      <trkpt lat="59.567830281954" lon="15.01296022954">
        <ele>109.4</ele>
        <time>2013-07-15T16:15:09Z</time>
      </trkpt>
      <trkpt lat="59.567748306972" lon="15.013295337902">
        <ele>109.4</ele>
        <time>2013-07-15T16:15:19Z</time>
      </trkpt>
      <trkpt lat="59.567662643954" lon="15.013651401014">
        <ele>109.4</ele>
        <time>2013-07-15T16:15:28Z</time>
      </trkpt>
      <trkpt lat="59.567523923509" lon="15.014119613948">
        <ele>109.4</ele>
        <time>2013-07-15T16:15:41Z</time>
      </trkpt>
      <trkpt lat="59.567437003206" lon="15.014635268436">
        <ele>109.4</ele>
        <time>2013-07-15T16:15:54Z</time>
      </trkpt>
      <trkpt lat="59.56739978757" lon="15.014814808734">
        <ele>109</ele>
        <time>2013-07-15T16:15:59Z</time>
      </trkpt>
      <trkpt lat="59.567392914412" lon="15.0148495098">
        <ele>108.4</ele>
        <time>2013-07-15T16:16:00Z</time>
      </trkpt>
      <trkpt lat="59.567386711806" lon="15.014880439011">
        <ele>107.8</ele>
        <time>2013-07-15T16:16:01Z</time>
      </trkpt>
      <trkpt lat="59.567380928295" lon="15.014907596367">
        <ele>108.2</ele>
        <time>2013-07-15T16:16:02Z</time>
      </trkpt>
      <trkpt lat="59.567375396241" lon="15.014938777035">
        <ele>108.6</ele>
        <time>2013-07-15T16:16:03Z</time>
      </trkpt>
      <trkpt lat="59.567369780368" lon="15.014970460617">
        <ele>108.8</ele>
        <time>2013-07-15T16:16:04Z</time>
      </trkpt>
      <trkpt lat="59.5673637454" lon="15.015003317665">
        <ele>109.2</ele>
        <time>2013-07-15T16:16:05Z</time>
      </trkpt>
      <trkpt lat="59.567358380984" lon="15.015038018731">
        <ele>109.6</ele>
        <time>2013-07-15T16:16:06Z</time>
      </trkpt>
      <trkpt lat="59.567316136208" lon="15.015251924819">
        <ele>109.6</ele>
        <time>2013-07-15T16:16:12Z</time>
      </trkpt>
      <trkpt lat="59.567231562837" lon="15.015622488618">
        <ele>109.6</ele>
        <time>2013-07-15T16:16:22Z</time>
      </trkpt>
      <trkpt lat="59.567104828509" lon="15.016053569735">
        <ele>109.6</ele>
        <time>2013-07-15T16:16:34Z</time>
      </trkpt>
      <trkpt lat="59.567028301762" lon="15.016442825171">
        <ele>109.6</ele>
        <time>2013-07-15T16:16:44Z</time>
      </trkpt>
      <trkpt lat="59.566911709533" lon="15.016831745331">
        <ele>109.6</ele>
        <time>2013-07-15T16:16:55Z</time>
      </trkpt>
      <trkpt lat="59.566825711239" lon="15.017132404084">
        <ele>109.6</ele>
        <time>2013-07-15T16:17:04Z</time>
      </trkpt>
      <trkpt lat="59.566729403208" lon="15.017499447485">
        <ele>109.6</ele>
        <time>2013-07-15T16:17:14Z</time>
      </trkpt>
      <trkpt lat="59.566628568951" lon="15.017919967408">
        <ele>109.6</ele>
        <time>2013-07-15T16:17:25Z</time>
      </trkpt>
      <trkpt lat="59.566522035002" lon="15.018231271174">
        <ele>109.6</ele>
        <time>2013-07-15T16:17:34Z</time>
      </trkpt>
      <trkpt lat="59.566448609558" lon="15.018605187733">
        <ele>109.6</ele>
        <time>2013-07-15T16:17:44Z</time>
      </trkpt>
      <trkpt lat="59.566344003446" lon="15.019012631892">
        <ele>109.6</ele>
        <time>2013-07-15T16:17:55Z</time>
      </trkpt>
      <trkpt lat="59.566251886365" lon="15.019351847385">
        <ele>109.6</ele>
        <time>2013-07-15T16:18:05Z</time>
      </trkpt>
      <trkpt lat="59.566197906929" lon="15.019703132814">
        <ele>109.6</ele>
        <time>2013-07-15T16:18:14Z</time>
      </trkpt>
      <trkpt lat="59.56612406239" lon="15.020136393225">
        <ele>109.6</ele>
        <time>2013-07-15T16:18:25Z</time>
      </trkpt>
      <trkpt lat="59.566038231734" lon="15.020558840985">
        <ele>109.6</ele>
        <time>2013-07-15T16:18:36Z</time>
      </trkpt>
      <trkpt lat="59.565942845712" lon="15.020932003173">
        <ele>109.6</ele>
        <time>2013-07-15T16:18:46Z</time>
      </trkpt>
      <trkpt lat="59.565856763599" lon="15.021334418192">
        <ele>109.6</ele>
        <time>2013-07-15T16:18:58Z</time>
      </trkpt>
      <trkpt lat="59.56574184775" lon="15.021746220939">
        <ele>109.6</ele>
        <time>2013-07-15T16:19:09Z</time>
      </trkpt>
      <trkpt lat="59.565686611029" lon="15.022192473295">
        <ele>109.6</ele>
        <time>2013-07-15T16:19:19Z</time>
      </trkpt>
      <trkpt lat="59.565630619937" lon="15.022539232498">
        <ele>109.6</ele>
        <time>2013-07-15T16:19:29Z</time>
      </trkpt>
      <trkpt lat="59.565574042112" lon="15.022776440268">
        <ele>109.6</ele>
        <time>2013-07-15T16:19:37Z</time>
      </trkpt>
      <trkpt lat="59.565489384922" lon="15.023117667417">
        <ele>109.6</ele>
        <time>2013-07-15T16:19:47Z</time>
      </trkpt>
      <trkpt lat="59.56543087926" lon="15.02343089902">
        <ele>109.6</ele>
        <time>2013-07-15T16:19:55Z</time>
      </trkpt>
      <trkpt lat="59.565373127969" lon="15.023787297408">
        <ele>109.6</ele>
        <time>2013-07-15T16:20:05Z</time>
      </trkpt>
      <trkpt lat="59.56533029646" lon="15.024128440738">
        <ele>109.6</ele>
        <time>2013-07-15T16:20:14Z</time>
      </trkpt>
      <trkpt lat="59.565307832968" lon="15.024426501102">
        <ele>109.6</ele>
        <time>2013-07-15T16:20:23Z</time>
      </trkpt>
      <trkpt lat="59.56528587239" lon="15.024778540902">
        <ele>109.6</ele>
        <time>2013-07-15T16:20:33Z</time>
      </trkpt>
      <trkpt lat="59.565233569334" lon="15.025202078309">
        <ele>109.6</ele>
        <time>2013-07-15T16:20:45Z</time>
      </trkpt>
      <trkpt lat="59.565168693428" lon="15.025604912423">
        <ele>109.6</ele>
        <time>2013-07-15T16:20:55Z</time>
      </trkpt>
      <trkpt lat="59.565111780327" lon="15.025907247556">
        <ele>109.6</ele>
        <time>2013-07-15T16:21:03Z</time>
      </trkpt>
      <trkpt lat="59.565068194447" lon="15.026225005385">
        <ele>109.6</ele>
        <time>2013-07-15T16:21:12Z</time>
      </trkpt>
      <trkpt lat="59.565061488927" lon="15.026613841726">
        <ele>109.6</ele>
        <time>2013-07-15T16:21:21Z</time>
      </trkpt>
      <trkpt lat="59.565055873054" lon="15.026917937058">
        <ele>109.6</ele>
        <time>2013-07-15T16:21:28Z</time>
      </trkpt>
      <trkpt lat="59.565042881109" lon="15.027249441203">
        <ele>109.6</ele>
        <time>2013-07-15T16:21:36Z</time>
      </trkpt>
      <trkpt lat="59.565010443156" lon="15.027701979984">
        <ele>109.6</ele>
        <time>2013-07-15T16:21:47Z</time>
      </trkpt>
      <trkpt lat="59.564954619702" lon="15.028088385574">
        <ele>109.6</ele>
        <time>2013-07-15T16:21:57Z</time>
      </trkpt>
      <trkpt lat="59.564928384355" lon="15.028467079816">
        <ele>109.6</ele>
        <time>2013-07-15T16:22:07Z</time>
      </trkpt>
      <trkpt lat="59.564900221171" lon="15.028806630585">
        <ele>109.6</ele>
        <time>2013-07-15T16:22:16Z</time>
      </trkpt>
      <trkpt lat="59.564849594495" lon="15.029092704832">
        <ele>109.6</ele>
        <time>2013-07-15T16:22:24Z</time>
      </trkpt>
      <trkpt lat="59.564761836002" lon="15.029450109048">
        <ele>109.6</ele>
        <time>2013-07-15T16:22:34Z</time>
      </trkpt>
      <trkpt lat="59.564658990089" lon="15.029855709189">
        <ele>109.6</ele>
        <time>2013-07-15T16:22:45Z</time>
      </trkpt>
      <trkpt lat="59.564597383124" lon="15.030283772822">
        <ele>109.6</ele>
        <time>2013-07-15T16:22:55Z</time>
      </trkpt>
      <trkpt lat="59.564513228848" lon="15.030693228637">
        <ele>109.6</ele>
        <time>2013-07-15T16:23:05Z</time>
      </trkpt>
      <trkpt lat="59.564445838372" lon="15.031101510986">
        <ele>109.6</ele>
        <time>2013-07-15T16:23:16Z</time>
      </trkpt>
      <trkpt lat="59.564380124276" lon="15.031421783385">
        <ele>109.6</ele>
        <time>2013-07-15T16:23:25Z</time>
      </trkpt>
      <trkpt lat="59.564275350526" lon="15.031593696154">
        <ele>109.6</ele>
        <time>2013-07-15T16:23:33Z</time>
      </trkpt>
      <trkpt lat="59.564248528446" lon="15.031734176798">
        <ele>109.6</ele>
        <time>2013-07-15T16:23:39Z</time>
      </trkpt>
      <trkpt lat="59.564257329441" lon="15.03176083124">
        <ele>109.6</ele>
        <time>2013-07-15T16:23:40Z</time>
      </trkpt>
      <trkpt lat="59.564299238941" lon="15.031851439579">
        <ele>109.6</ele>
        <time>2013-07-15T16:23:46Z</time>
      </trkpt>
      <trkpt lat="59.564314661637" lon="15.031902736807">
        <ele>109.6</ele>
        <time>2013-07-15T16:23:57Z</time>
      </trkpt>
      <trkpt lat="59.564314661637" lon="15.031902736807">
        <ele>109.6</ele>
        <time>2013-07-15T16:24:01Z</time>
      </trkpt>
    </trkseg>
  </trk>
</gpx>